Time;durP1;ratioP1;P1;durP2;ratioP2;P2;SDS_P1;SDS_P2;PMS_P1;PMS_P2;Temp;Humidity;BMP_temperature;BMP_pressure;BME280_temperature;BME280_humidity;BME280_pressure;Samples;Min_cycle;Max_cycle;Signal;HPM_P1;HPM_P2
2021/01/29 00:01:23;;;;;;;8.45;5.53;;;;;;;;;;6395736;22;20181;-52
2021/01/29 00:03:50;;;;;;;9.05;6.20;;;;;;;;;;6395475;22;20184;-51
2021/01/29 00:06:19;;;;;;;7.25;5.78;;;;;;;;;;6395812;22;20176;-59
2021/01/29 00:08:46;;;;;;;6.80;5.47;;;;;;;;;;6395740;22;20193;-59
2021/01/29 00:11:13;;;;;;;10.35;7.50;;;;;;;;;;6396884;22;20155;-54
2021/01/29 00:13:42;;;;;;;8.98;5.75;;;;;;;;;;6396641;22;20178;-41
2021/01/29 00:16:08;;;;;;;7.50;5.60;;;;;;;;;;6396690;22;20191;-50
2021/01/29 00:18:36;;;;;;;7.20;6.30;;;;;;;;;;6396479;22;20195;-58
2021/01/29 00:21:12;;;;;;;9.18;5.82;;;;;;;;;;6396671;22;20199;-54
2021/01/29 00:23:41;;;;;;;9.75;6.15;;;;;;;;;;6397177;22;20376;-57
2021/01/29 00:26:12;;;;;;;10.10;7.15;;;;;;;;;;6396752;22;20195;-51
2021/01/29 00:28:44;;;;;;;10.77;5.75;;;;;;;;;;6396840;22;20184;-55
2021/01/29 00:31:11;;;;;;;8.98;6.00;;;;;;;;;;6396218;22;20206;-46
2021/01/29 00:33:46;;;;;;;10.25;5.80;;;;;;;;;;6397025;22;20169;-50
2021/01/29 00:36:13;;;;;;;10.88;5.78;;;;;;;;;;6396309;22;20197;-47
2021/01/29 00:38:40;;;;;;;8.13;4.75;;;;;;;;;;6396721;22;20181;-54
2021/01/29 00:41:15;;;;;;;8.35;5.25;;;;;;;;;;6396253;22;20192;-49
2021/01/29 00:43:42;;;;;;;7.05;4.50;;;;;;;;;;6395866;22;20179;-48
2021/01/29 00:46:08;;;;;;;6.57;4.68;;;;;;;;;;6396484;22;20177;-51
2021/01/29 00:48:45;;;;;;;10.80;5.20;;;;;;;;;;6395612;22;20165;-50
2021/01/29 00:51:22;;;;;;;12.45;5.53;;;;;;;;;;6396126;22;20236;-57
2021/01/29 00:53:52;;;;;;;10.93;4.93;;;;;;;;;;6395292;22;20234;-58
2021/01/29 00:56:18;;;;;;;7.07;5.40;;;;;;;;;;6395796;22;20169;-55
2021/01/29 00:58:45;;;;;;;6.13;5.13;;;;;;;;;;6396434;22;20161;-51
2021/01/29 01:01:13;;;;;;;9.43;5.95;;;;;;;;;;6395588;22;20199;-53
2021/01/29 01:03:40;;;;;;;10.93;5.85;;;;;;;;;;6396062;22;20229;-54
2021/01/29 01:06:07;;;;;;;12.80;6.00;;;;;;;;;;6395613;22;20188;-49
2021/01/29 01:08:36;;;;;;;15.40;6.07;;;;;;;;;;6395299;22;20325;-53
2021/01/29 01:11:04;;;;;;;12.25;5.85;;;;;;;;;;6395313;22;20206;-52
2021/01/29 01:13:31;;;;;;;12.45;6.13;;;;;;;;;;6397197;22;20176;-55
2021/01/29 01:15:59;;;;;;;129.70;76.60;;;;;;;;;;6395793;22;20350;-59
2021/01/29 01:18:28;;;;;;;99.82;64.20;;;;;;;;;;6394967;22;20458;-58
2021/01/29 01:20:57;;;;;;;125.80;83.70;;;;;;;;;;6396156;22;20153;-59
2021/01/29 01:23:24;;;;;;;30.60;16.50;;;;;;;;;;6396284;22;20165;-56
2021/01/29 01:25:53;;;;;;;12.77;8.65;;;;;;;;;;6396351;22;20165;-52
2021/01/29 01:28:22;;;;;;;30.15;16.75;;;;;;;;;;6397001;22;20151;-55
2021/01/29 01:30:51;;;;;;;20.02;10.30;;;;;;;;;;6396461;22;20304;-49
2021/01/29 01:33:20;;;;;;;13.77;6.95;;;;;;;;;;6395524;22;20190;-53
2021/01/29 01:36:19;;;;;;;9.27;5.38;;;;;;;;;;6396149;22;20182;-51
2021/01/29 01:38:46;;;;;;;8.60;5.00;;;;;;;;;;6395142;22;20188;-60
2021/01/29 01:41:14;;;;;;;10.25;4.90;;;;;;;;;;6395880;22;20172;-58
2021/01/29 01:43:55;;;;;;;11.68;5.78;;;;;;;;;;6395877;22;20185;-54
2021/01/29 01:46:24;;;;;;;9.10;4.80;;;;;;;;;;6395842;22;20469;-56
2021/01/29 01:48:55;;;;;;;11.90;5.13;;;;;;;;;;6395116;22;20249;-52
2021/01/29 01:51:32;;;;;;;16.52;5.07;;;;;;;;;;6394311;22;20177;-52
2021/01/29 01:54:00;;;;;;;13.05;6.10;;;;;;;;;;6396011;22;20155;-49
2021/01/29 01:56:41;;;;;;;14.48;4.70;;;;;;;;;;6395144;22;20192;-47
2021/01/29 01:59:12;;;;;;;10.23;5.00;;;;;;;;;;6394802;22;20165;-50
2021/01/29 02:01:39;;;;;;;15.43;5.55;;;;;;;;;;6394725;22;20168;-52
2021/01/29 02:04:38;;;;;;;8.80;4.15;;;;;;;;;;6395242;22;20242;-46
2021/01/29 02:07:09;;;;;;;12.85;4.35;;;;;;;;;;6395210;22;20206;-50
2021/01/29 02:09:38;;;;;;;11.05;4.68;;;;;;;;;;6395618;22;20228;-52
2021/01/29 02:12:10;;;;;;;12.07;4.45;;;;;;;;;;6395224;22;20238;-52
2021/01/29 02:14:38;;;;;;;12.60;3.78;;;;;;;;;;6395073;22;20191;-51
2021/01/29 02:17:07;;;;;;;16.02;3.90;;;;;;;;;;6395124;22;20194;-46
2021/01/29 02:20:02;;;;;;;12.43;3.90;;;;;;;;;;6395320;22;20183;-47
2021/01/29 02:22:44;;;;;;;9.60;4.60;;;;;;;;;;6395512;22;20187;-54
2021/01/29 02:28:20;;;;;;;17.25;4.32;;;;;;;;;;6394738;22;20162;-51
2021/01/29 02:30:51;;;;;;;10.15;3.72;;;;;;;;;;6394784;22;20201;-51
2021/01/29 02:33:37;;;;;;;11.13;5.07;;;;;;;;;;6395335;22;20185;-49
2021/01/29 02:36:10;;;;;;;11.00;5.18;;;;;;;;;;6394647;22;20180;-56
2021/01/29 02:38:47;;;;;;;7.90;4.15;;;;;;;;;;6395446;22;20180;-52
2021/01/29 02:41:21;;;;;;;9.88;4.20;;;;;;;;;;6395154;22;20164;-53
2021/01/29 02:43:52;;;;;;;6.50;3.25;;;;;;;;;;6394531;22;20180;-50
2021/01/29 02:46:26;;;;;;;10.40;5.00;;;;;;;;;;6395613;22;20211;-53
2021/01/29 02:48:56;;;;;;;10.95;4.35;;;;;;;;;;6394555;22;20208;-51
2021/01/29 02:51:25;;;;;;;11.60;4.15;;;;;;;;;;6394633;22;20180;-45
2021/01/29 02:54:02;;;;;;;11.45;6.20;;;;;;;;;;6394876;22;20150;-51
2021/01/29 02:56:33;;;;;;;11.35;4.30;;;;;;;;;;6394387;22;20180;-47
2021/01/29 02:59:03;;;;;;;4.95;3.03;;;;;;;;;;6393978;22;20162;-50
2021/01/29 03:01:34;;;;;;;6.50;3.55;;;;;;;;;;6395302;22;20180;-55
2021/01/29 03:04:03;;;;;;;9.05;5.03;;;;;;;;;;6394649;22;20242;-48
2021/01/29 03:06:33;;;;;;;7.95;3.20;;;;;;;;;;6394962;22;20181;-47
2021/01/29 03:09:05;;;;;;;8.68;3.40;;;;;;;;;;6394077;22;20191;-52
2021/01/29 03:11:35;;;;;;;11.07;4.53;;;;;;;;;;6395535;22;20157;-52
2021/01/29 03:14:10;;;;;;;6.55;4.40;;;;;;;;;;6396850;22;20177;-46
2021/01/29 03:16:40;;;;;;;6.25;3.25;;;;;;;;;;6396764;22;20178;-50
2021/01/29 03:19:09;;;;;;;6.95;3.50;;;;;;;;;;6397160;22;20203;-52
2021/01/29 03:21:39;;;;;;;13.23;4.40;;;;;;;;;;6396369;22;20181;-56
2021/01/29 03:24:09;;;;;;;10.05;4.10;;;;;;;;;;6396651;22;20208;-47
2021/01/29 03:27:00;;;;;;;8.52;3.40;;;;;;;;;;6396319;22;20178;-52
2021/01/29 03:29:30;;;;;;;8.10;3.80;;;;;;;;;;6396734;22;20228;-58
2021/01/29 03:31:59;;;;;;;5.57;3.58;;;;;;;;;;6395819;22;20168;-52
2021/01/29 03:34:46;;;;;;;7.18;4.25;;;;;;;;;;6396334;22;20171;-54
2021/01/29 03:37:15;;;;;;;12.52;5.43;;;;;;;;;;6397097;22;20169;-57
2021/01/29 03:39:43;;;;;;;10.00;4.75;;;;;;;;;;6395947;22;20177;-52
2021/01/29 03:42:19;;;;;;;12.57;4.30;;;;;;;;;;6395950;22;20192;-54
2021/01/29 03:44:48;;;;;;;7.60;4.05;;;;;;;;;;6395648;22;20249;-48
2021/01/29 03:47:22;;;;;;;6.82;3.92;;;;;;;;;;6396161;22;20215;-57
2021/01/29 03:49:59;;;;;;;8.63;4.38;;;;;;;;;;6395432;22;20200;-52
2021/01/29 03:52:39;;;;;;;10.80;3.30;;;;;;;;;;6369385;22;20176;-57
2021/01/29 03:55:18;;;;;;;7.15;3.45;;;;;;;;;;6395957;22;20181;-59
2021/01/29 03:57:49;;;;;;;4.72;3.50;;;;;;;;;;6396765;22;20168;-57
2021/01/29 04:00:20;;;;;;;8.23;4.40;;;;;;;;;;6396881;22;20192;-54
2021/01/29 04:02:53;;;;;;;7.60;3.42;;;;;;;;;;6395744;22;20177;-53
2021/01/29 04:05:24;;;;;;;11.65;3.78;;;;;;;;;;6396819;22;20169;-55
2021/01/29 04:08:07;;;;;;;9.05;3.58;;;;;;;;;;6395321;22;20181;-53
2021/01/29 04:10:35;;;;;;;9.10;3.78;;;;;;;;;;6395852;22;20205;-53
2021/01/29 04:13:04;;;;;;;9.68;3.65;;;;;;;;;;6395287;22;20186;-55
2021/01/29 04:15:42;;;;;;;6.78;3.67;;;;;;;;;;6395852;22;20176;-50
2021/01/29 04:18:13;;;;;;;9.07;4.18;;;;;;;;;;6395338;22;20189;-53
2021/01/29 04:20:42;;;;;;;8.32;4.70;;;;;;;;;;6395973;22;20238;-56
2021/01/29 04:23:15;;;;;;;9.65;4.43;;;;;;;;;;6396116;22;20176;-57
2021/01/29 04:25:44;;;;;;;6.65;3.70;;;;;;;;;;6396633;22;20181;-53
2021/01/29 04:28:11;;;;;;;6.03;3.40;;;;;;;;;;6396344;22;20164;-56
2021/01/29 04:30:52;;;;;;;5.22;3.53;;;;;;;;;;6396006;22;20240;-52
2021/01/29 04:33:21;;;;;;;9.52;3.92;;;;;;;;;;6395791;22;20169;-49
2021/01/29 04:35:52;;;;;;;11.68;3.65;;;;;;;;;;6395673;22;20184;-55
2021/01/29 04:38:22;;;;;;;7.80;3.72;;;;;;;;;;6395872;22;20184;-49
2021/01/29 04:40:54;;;;;;;4.93;3.53;;;;;;;;;;6393183;22;20172;-55
2021/01/29 04:43:41;;;;;;;6.05;3.60;;;;;;;;;;6394991;22;20216;-45
2021/01/29 04:46:32;;;;;;;6.50;2.90;;;;;;;;;;6395546;22;20137;-53
2021/01/29 04:49:15;;;;;;;6.30;3.10;;;;;;;;;;6394796;22;20173;-56
2021/01/29 04:51:57;;;;;;;6.70;3.92;;;;;;;;;;6394592;22;20169;-59
2021/01/29 04:54:41;;;;;;;7.00;3.75;;;;;;;;;;6363581;22;20188;-46
2021/01/29 04:57:36;;;;;;;6.75;3.13;;;;;;;;;;6395441;22;20192;-56
2021/01/29 05:00:31;;;;;;;7.68;3.35;;;;;;;;;;6396737;22;20181;-52
2021/01/29 05:03:15;;;;;;;8.43;3.42;;;;;;;;;;6395319;22;20183;-53
2021/01/29 05:05:57;;;;;;;12.55;3.42;;;;;;;;;;6395721;22;20230;-56
2021/01/29 05:08:48;;;;;;;8.35;3.25;;;;;;;;;;6394312;22;20168;-56
2021/01/29 05:11:51;;;;;;;6.05;4.32;;;;;;;;;;6395249;22;20190;-53
2021/01/29 05:14:24;;;;;;;4.20;2.75;;;;;;;;;;6238362;23;20235;-56
2021/01/29 05:17:10;;;;;;;4.55;3.05;;;;;;;;;;6371312;22;20172;-53
2021/01/29 05:20:01;;;;;;;4.38;2.60;;;;;;;;;;6395317;22;20167;-59
2021/01/29 05:22:42;;;;;;;6.75;3.70;;;;;;;;;;6395424;22;20170;-52
2021/01/29 05:25:42;;;;;;;9.15;2.63;;;;;;;;;;6394941;22;20161;-55
2021/01/29 05:28:55;;;;;;;5.85;2.83;;;;;;;;;;6394499;22;20165;-57
2021/01/29 05:31:48;;;;;;;6.45;2.85;;;;;;;;;;6395763;22;20148;-49
2021/01/29 05:34:34;;;;;;;7.32;2.63;;;;;;;;;;6395127;22;20149;-57
2021/01/29 05:37:20;;;;;;;2.90;1.70;;;;;;;;;;6396385;22;20168;-45
2021/01/29 05:39:52;;;;;;;3.85;2.17;;;;;;;;;;6394762;22;20177;-46
2021/01/29 05:42:27;;;;;;;3.15;2.03;;;;;;;;;;6395213;22;20248;-56
2021/01/29 05:45:13;;;;;;;3.88;1.70;;;;;;;;;;6395183;22;20161;-58
2021/01/29 05:48:00;;;;;;;4.28;2.35;;;;;;;;;;6395825;22;20161;-55
2021/01/29 05:50:46;;;;;;;6.10;2.50;;;;;;;;;;6395704;22;20194;-51
2021/01/29 05:53:23;;;;;;;4.82;2.45;;;;;;;;;;6394609;22;20572;-59
2021/01/29 05:56:03;;;;;;;5.40;3.22;;;;;;;;;;6394520;22;20223;-54
2021/01/29 05:58:58;;;;;;;8.38;3.30;;;;;;;;;;6393806;22;20532;-52
2021/01/29 06:01:51;;;;;;;6.45;2.83;;;;;;;;;;6255382;22;20231;-56
2021/01/29 06:04:43;;;;;;;4.47;3.20;;;;;;;;;;6394503;22;20181;-54
2021/01/29 06:07:35;;;;;;;4.13;2.17;;;;;;;;;;6364220;22;20186;-53
2021/01/29 06:10:21;;;;;;;4.93;1.85;;;;;;;;;;6394882;22;20196;-49
2021/01/29 06:13:03;;;;;;;2.70;1.88;;;;;;;;;;6394943;22;20170;-48
2021/01/29 06:15:42;;;;;;;2.58;1.83;;;;;;;;;;6393870;22;20165;-55
2021/01/29 06:18:16;;;;;;;2.92;1.77;;;;;;;;;;6392254;22;20160;-53
2021/01/29 06:24:15;;;;;;;2.75;1.15;;;;;;;;;;6236522;23;20229;-57
2021/01/29 06:26:56;;;;;;;3.65;1.60;;;;;;;;;;6237436;23;20296;-56
2021/01/29 06:29:29;;;;;;;2.88;1.63;;;;;;;;;;6358005;22;20233;-48
2021/01/29 06:32:17;;;;;;;5.80;2.25;;;;;;;;;;6393875;22;20187;-50
2021/01/29 06:34:55;;;;;;;2.45;1.70;;;;;;;;;;6395051;22;20188;-54
2021/01/29 06:37:29;;;;;;;2.35;1.42;;;;;;;;;;6390234;22;20180;-51
2021/01/29 06:40:05;;;;;;;1.90;0.90;;;;;;;;;;6394290;22;20249;-54
2021/01/29 06:42:51;;;;;;;2.80;1.60;;;;;;;;;;6395045;22;20208;-55
2021/01/29 06:45:25;;;;;;;3.10;1.00;;;;;;;;;;6393936;22;20162;-50
2021/01/29 06:48:02;;;;;;;1.70;1.10;;;;;;;;;;6395584;22;20263;-49
2021/01/29 06:50:51;;;;;;;2.72;1.35;;;;;;;;;;6395868;22;20369;-51
2021/01/29 06:53:33;;;;;;;3.55;2.33;;;;;;;;;;6397083;22;20184;-52
2021/01/29 06:56:11;;;;;;;2.30;1.25;;;;;;;;;;6397061;22;20165;-52
2021/01/29 06:59:01;;;;;;;3.07;1.60;;;;;;;;;;6396224;22;20200;-54
2021/01/29 07:04:51;;;;;;;1.88;0.77;;;;;;;;;;6384038;22;20188;-48
2021/01/29 07:07:24;;;;;;;4.85;1.75;;;;;;;;;;6357333;22;20187;-58
2021/01/29 07:10:00;;;;;;;2.65;0.80;;;;;;;;;;6395362;22;20225;-52
2021/01/29 07:12:32;;;;;;;2.90;1.10;;;;;;;;;;6395572;22;20509;-46
2021/01/29 07:15:09;;;;;;;2.30;1.20;;;;;;;;;;6394756;22;20169;-59
2021/01/29 07:17:52;;;;;;;1.70;0.80;;;;;;;;;;6394332;22;20246;-54
2021/01/29 07:20:39;;;;;;;2.40;0.90;;;;;;;;;;6395336;22;20185;-55
2021/01/29 07:23:16;;;;;;;5.45;1.90;;;;;;;;;;6395414;22;20180;-56
2021/01/29 07:25:47;;;;;;;1.80;0.90;;;;;;;;;;6394826;22;20168;-60
2021/01/29 07:28:28;;;;;;;3.95;1.85;;;;;;;;;;6393629;22;20183;-57
2021/01/29 07:31:10;;;;;;;3.47;1.55;;;;;;;;;;6395033;22;20231;-58
2021/01/29 07:33:45;;;;;;;2.15;1.10;;;;;;;;;;6394756;22;20158;-52
2021/01/29 07:36:23;;;;;;;8.48;2.10;;;;;;;;;;6395178;22;20161;-50
2021/01/29 07:39:22;;;;;;;3.15;1.17;;;;;;;;;;6395334;22;20206;-55
2021/01/29 07:41:53;;;;;;;6.07;1.90;;;;;;;;;;6394467;22;20202;-56
2021/01/29 07:44:27;;;;;;;3.05;1.40;;;;;;;;;;6395638;22;20488;-57
2021/01/29 07:47:11;;;;;;;3.25;1.27;;;;;;;;;;6394527;22;20207;-51
2021/01/29 07:49:53;;;;;;;4.95;1.90;;;;;;;;;;6317141;22;20336;-58
2021/01/29 07:52:33;;;;;;;3.60;1.70;;;;;;;;;;6393384;22;20217;-49
2021/01/29 07:55:07;;;;;;;2.55;1.60;;;;;;;;;;6394515;22;20153;-56
2021/01/29 07:57:51;;;;;;;3.55;1.77;;;;;;;;;;6394291;22;20172;-56
2021/01/29 08:00:24;;;;;;;3.83;2.00;;;;;;;;;;6393373;22;20222;-57
2021/01/29 08:03:18;;;;;;;6.07;2.47;;;;;;;;;;6394572;22;20188;-50
2021/01/29 08:05:49;;;;;;;2.45;1.55;;;;;;;;;;6362573;22;20177;-57
2021/01/29 08:08:33;;;;;;;7.07;3.20;;;;;;;;;;6394602;22;20197;-59
2021/01/29 08:11:01;;;;;;;6.20;2.78;;;;;;;;;;6394210;22;20200;-53
2021/01/29 08:13:34;;;;;;;2.35;1.17;;;;;;;;;;6394705;22;20169;-54
2021/01/29 08:16:12;;;;;;;6.00;1.60;;;;;;;;;;6393582;22;20176;-55
2021/01/29 08:18:46;;;;;;;2.60;1.17;;;;;;;;;;6393064;22;20184;-50
2021/01/29 08:21:32;;;;;;;5.55;1.88;;;;;;;;;;6393749;22;20172;-53
2021/01/29 08:24:07;;;;;;;5.20;2.35;;;;;;;;;;6393248;22;20241;-51
2021/01/29 08:26:57;;;;;;;10.05;2.60;;;;;;;;;;6394502;22;20176;-57
2021/01/29 08:29:42;;;;;;;8.00;2.50;;;;;;;;;;6393856;22;20189;-52
2021/01/29 08:32:30;;;;;;;11.82;3.13;;;;;;;;;;6392596;22;20185;-56
2021/01/29 08:35:05;;;;;;;11.55;3.20;;;;;;;;;;6392869;22;20187;-56
2021/01/29 08:37:39;;;;;;;15.57;4.70;;;;;;;;;;6394036;22;20165;-56
2021/01/29 08:40:23;;;;;;;16.17;4.00;;;;;;;;;;6394114;22;20164;-58
2021/01/29 08:42:57;;;;;;;14.85;3.22;;;;;;;;;;6394444;22;20177;-55
2021/01/29 08:45:34;;;;;;;16.63;3.78;;;;;;;;;;6392568;22;20262;-54
2021/01/29 08:48:16;;;;;;;18.63;3.30;;;;;;;;;;6393903;22;20187;-53
2021/01/29 08:51:08;;;;;;;14.95;3.25;;;;;;;;;;6393703;22;20430;-56
2021/01/29 08:53:59;;;;;;;10.43;2.83;;;;;;;;;;6391350;22;20178;-55
2021/01/29 08:56:31;;;;;;;15.52;4.25;;;;;;;;;;6392984;22;20169;-47
2021/01/29 08:59:02;;;;;;;17.13;4.13;;;;;;;;;;6390463;22;20204;-56
2021/01/29 09:01:33;;;;;;;19.75;4.10;;;;;;;;;;6392930;22;20192;-60
2021/01/29 09:04:25;;;;;;;13.10;5.10;;;;;;;;;;6393116;22;20179;-53
2021/01/29 09:06:54;;;;;;;18.83;3.63;;;;;;;;;;6393766;22;20395;-49
2021/01/29 09:09:23;;;;;;;12.73;4.30;;;;;;;;;;6393439;22;20930;-57
2021/01/29 09:11:52;;;;;;;17.60;3.85;;;;;;;;;;6394038;22;20187;-48
2021/01/29 09:14:22;;;;;;;24.75;5.57;;;;;;;;;;6392456;22;20169;-54
2021/01/29 09:16:55;;;;;;;10.17;3.43;;;;;;;;;;6392427;22;20169;-55
2021/01/29 09:22:28;;;;;;;21.52;4.00;;;;;;;;;;6393994;22;20445;-56
2021/01/29 09:24:58;;;;;;;16.88;4.10;;;;;;;;;;6392655;22;20206;-50
2021/01/29 09:27:41;;;;;;;12.90;3.80;;;;;;;;;;6392246;22;20195;-60
2021/01/29 09:30:13;;;;;;;11.87;4.50;;;;;;;;;;6391268;22;20412;-54
2021/01/29 09:32:47;;;;;;;16.57;3.70;;;;;;;;;;6393157;22;20376;-60
2021/01/29 09:35:16;;;;;;;19.43;4.10;;;;;;;;;;6393514;22;20375;-52
2021/01/29 09:37:48;;;;;;;18.93;3.90;;;;;;;;;;6392739;22;20416;-55
2021/01/29 09:40:21;;;;;;;11.97;3.53;;;;;;;;;;6392350;22;20403;-54
2021/01/29 09:42:54;;;;;;;17.80;4.30;;;;;;;;;;6393257;22;20419;-56
2021/01/29 09:45:23;;;;;;;20.40;3.80;;;;;;;;;;6392236;22;20514;-56
2021/01/29 09:48:05;;;;;;;20.83;5.37;;;;;;;;;;6392637;22;20388;-57
2021/01/29 09:50:34;;;;;;;17.03;4.10;;;;;;;;;;6392795;22;20442;-53
2021/01/29 09:53:22;;;;;;;11.40;3.60;;;;;;;;;;6390497;22;20435;-55
2021/01/29 09:56:04;;;;;;;25.03;4.10;;;;;;;;;;6387838;22;20438;-59
2021/01/29 09:58:37;;;;;;;29.93;5.67;;;;;;;;;;6391973;22;20407;-56
2021/01/29 10:01:06;;;;;;;16.27;4.13;;;;;;;;;;6391557;22;20414;-57
2021/01/29 10:03:35;;;;;;;15.93;5.30;;;;;;;;;;6391758;22;20419;-58
2021/01/29 10:06:05;;;;;;;20.07;6.20;;;;;;;;;;6392803;22;20400;-56
2021/01/29 10:08:37;;;;;;;16.10;5.37;;;;;;;;;;6392393;22;20376;-57
2021/01/29 10:11:10;;;;;;;27.23;3.77;;;;;;;;;;6392278;22;20443;-52
2021/01/29 10:13:40;;;;;;;17.87;4.33;;;;;;;;;;6391687;22;20422;-54
2021/01/29 10:16:22;;;;;;;19.57;5.00;;;;;;;;;;6392072;22;20417;-49
2021/01/29 10:18:56;;;;;;;23.50;5.33;;;;;;;;;;6391257;22;20494;-56
2021/01/29 10:21:26;;;;;;;18.77;4.20;;;;;;;;;;6392604;22;20469;-61
2021/01/29 10:23:59;;;;;;;23.07;3.57;;;;;;;;;;6391507;22;20396;-51
2021/01/29 10:26:30;;;;;;;15.60;4.13;;;;;;;;;;6392683;22;20420;-56
2021/01/29 10:29:21;;;;;;;11.07;4.03;;;;;;;;;;6392296;22;20416;-55
2021/01/29 10:32:33;;;;;;;16.10;4.63;;;;;;;;;;6390948;22;20431;-60
2021/01/29 10:35:07;;;;;;;22.30;4.17;;;;;;;;;;6391259;22;20402;-59
2021/01/29 10:37:37;;;;;;;27.10;5.00;;;;;;;;;;6391442;22;20420;-56
2021/01/29 10:40:28;;;;;;;19.93;5.00;;;;;;;;;;6390845;22;20395;-54
2021/01/29 10:43:04;;;;;;;18.80;5.33;;;;;;;;;;6374833;22;20512;-57
2021/01/29 10:45:33;;;;;;;24.23;3.97;;;;;;;;;;6391478;22;20451;-54
2021/01/29 10:48:06;;;;;;;17.10;4.73;;;;;;;;;;6390275;22;20444;-58
2021/01/29 10:50:42;;;;;;;24.27;5.20;;;;;;;;;;6389579;22;20434;-55
2021/01/29 10:53:15;;;;;;;18.67;4.00;;;;;;;;;;6390788;22;20453;-60
2021/01/29 10:55:56;;;;;;;17.90;3.90;;;;;;;;;;6392431;22;20387;-55
2021/01/29 10:58:27;;;;;;;17.73;5.03;;;;;;;;;;6391856;22;20396;-55
2021/01/29 11:00:55;;;;;;;15.37;4.23;;;;;;;;;;6391978;22;20400;-49
2021/01/29 11:03:52;;;;;;;15.33;4.30;;;;;;;;;;6392362;22;20435;-50
2021/01/29 11:06:21;;;;;;;14.60;4.07;;;;;;;;;;6265519;23;20430;-49
2021/01/29 11:08:51;;;;;;;20.43;3.50;;;;;;;;;;6365023;22;20439;-58
2021/01/29 11:11:24;;;;;;;20.50;4.60;;;;;;;;;;6391375;22;20447;-55
2021/01/29 11:14:00;;;;;;;10.53;3.80;;;;;;;;;;6392020;22;20448;-55
2021/01/29 11:16:35;;;;;;;21.23;5.63;;;;;;;;;;6391557;22;20428;-55
2021/01/29 11:19:21;;;;;;;11.80;3.60;;;;;;;;;;6391292;22;20430;-57
2021/01/29 11:21:56;;;;;;;20.40;3.97;;;;;;;;;;6390990;22;20640;-55
2021/01/29 11:24:27;;;;;;;14.70;3.87;;;;;;;;;;6392294;22;20443;-55
2021/01/29 11:27:05;;;;;;;14.93;4.30;;;;;;;;;;6392792;22;20386;-59
2021/01/29 11:29:39;;;;;;;19.90;3.93;;;;;;;;;;6393569;22;20395;-55
2021/01/29 11:32:28;;;;;;;19.50;4.67;;;;;;;;;;6391449;22;20415;-56
2021/01/29 11:34:55;;;;;;;17.93;4.07;;;;;;;;;;6381810;22;20411;-51
2021/01/29 11:37:27;;;;;;;18.57;4.57;;;;;;;;;;6394165;22;20407;-55
2021/01/29 11:40:00;;;;;;;19.60;3.03;;;;;;;;;;6393797;22;20441;-58
2021/01/29 11:42:38;;;;;;;13.50;4.40;;;;;;;;;;6393460;22;20419;-56
2021/01/29 11:45:10;;;;;;;16.50;5.20;;;;;;;;;;6393634;22;20440;-55
2021/01/29 11:47:41;;;;;;;17.60;4.60;;;;;;;;;;6392536;22;20427;-53
2021/01/29 11:53:16;;;;;;;15.93;4.80;;;;;;;;;;6393514;22;20374;-56
2021/01/29 11:55:46;;;;;;;21.23;4.47;;;;;;;;;;6393630;22;20420;-56
2021/01/29 11:58:32;;;;;;;19.57;4.10;;;;;;;;;;6393643;22;20487;-55
2021/01/29 12:01:10;;;;;;;13.73;3.57;;;;;;;;;;6394989;22;20442;-60
2021/01/29 12:03:45;;;;;;;13.30;3.63;;;;;;;;;;6393954;22;20437;-57
2021/01/29 12:06:25;;;;;;;12.80;3.53;;;;;;;;;;6394584;22;20415;-54
2021/01/29 12:09:02;;;;;;;23.97;4.40;;;;;;;;;;6393898;22;20410;-55
2021/01/29 12:11:33;;;;;;;17.97;3.17;;;;;;;;;;6393104;22;20422;-57
2021/01/29 12:14:06;;;;;;;11.30;3.63;;;;;;;;;;6393401;22;20505;-59
2021/01/29 12:16:35;;;;;;;6.63;2.40;;;;;;;;;;6392373;22;20421;-52
2021/01/29 12:19:19;;;;;;;10.23;3.33;;;;;;;;;;6392495;22;20420;-54
2021/01/29 12:21:49;;;;;;;12.10;3.47;;;;;;;;;;6392162;22;20452;-55
2021/01/29 12:24:29;;;;;;;17.00;3.57;;;;;;;;;;6393309;22;20408;-59
2021/01/29 12:27:01;;;;;;;24.80;4.40;;;;;;;;;;6392581;22;20404;-55
2021/01/29 12:30:14;;;;;;;14.20;4.70;;;;;;;;;;6392307;22;20423;-55
2021/01/29 12:32:49;;;;;;;13.40;2.80;;;;;;;;;;6392368;22;20413;-54
2021/01/29 12:35:32;;;;;;;13.50;3.43;;;;;;;;;;6392747;22;20465;-54
2021/01/29 12:38:13;;;;;;;11.50;3.83;;;;;;;;;;6392944;22;20536;-52
2021/01/29 12:41:03;;;;;;;14.13;3.63;;;;;;;;;;6392993;22;20444;-53
2021/01/29 12:43:35;;;;;;;12.97;3.63;;;;;;;;;;6391443;22;20420;-57
2021/01/29 12:46:04;;;;;;;6.63;1.73;;;;;;;;;;6392514;22;20476;-56
2021/01/29 12:48:47;;;;;;;7.93;2.00;;;;;;;;;;6392086;22;20416;-56
2021/01/29 12:51:16;;;;;;;10.27;2.10;;;;;;;;;;6390649;22;20447;-57
2021/01/29 12:53:52;;;;;;;9.97;2.40;;;;;;;;;;6392028;22;20400;-55
2021/01/29 12:56:31;;;;;;;12.30;3.33;;;;;;;;;;6387988;22;20428;-51
2021/01/29 12:59:01;;;;;;;8.90;2.07;;;;;;;;;;6390727;22;20415;-50
2021/01/29 13:01:50;;;;;;;5.07;2.00;;;;;;;;;;6391564;22;20472;-57
2021/01/29 13:04:24;;;;;;;8.60;2.43;;;;;;;;;;6392390;22;20388;-59
2021/01/29 13:07:10;;;;;;;6.57;1.80;;;;;;;;;;6392310;22;20424;-50
2021/01/29 13:09:52;;;;;;;11.00;2.87;;;;;;;;;;6393089;22;20481;-54
2021/01/29 13:12:43;;;;;;;5.70;1.87;;;;;;;;;;6391989;22;20408;-56
2021/01/29 13:15:17;;;;;;;3.93;1.57;;;;;;;;;;6392713;22;20412;-54
2021/01/29 13:17:47;;;;;;;5.90;1.77;;;;;;;;;;6393072;22;20422;-59
2021/01/29 13:20:27;;;;;;;8.23;2.50;;;;;;;;;;6383962;22;20432;-56
2021/01/29 13:22:55;;;;;;;10.20;3.63;;;;;;;;;;6390859;22;20463;-50
2021/01/29 13:25:24;;;;;;;11.13;2.63;;;;;;;;;;6392546;22;20378;-57
2021/01/29 13:27:59;;;;;;;8.07;2.50;;;;;;;;;;6393131;22;20468;-57
2021/01/29 13:30:29;;;;;;;9.00;3.20;;;;;;;;;;6393036;22;20514;-60
2021/01/29 13:33:00;;;;;;;12.27;3.10;;;;;;;;;;6391261;22;20429;-61
2021/01/29 13:35:30;;;;;;;13.13;3.03;;;;;;;;;;6391323;22;20474;-54
2021/01/29 13:38:08;;;;;;;8.97;2.80;;;;;;;;;;6392854;22;20411;-61
2021/01/29 13:40:53;;;;;;;13.50;2.73;;;;;;;;;;6392039;22;20500;-55
2021/01/29 13:43:26;;;;;;;15.53;3.20;;;;;;;;;;6391528;22;20444;-55
2021/01/29 13:45:56;;;;;;;10.13;3.37;;;;;;;;;;6390564;22;20400;-55
2021/01/29 13:51:32;;;;;;;14.23;4.43;;;;;;;;;;6392288;22;20538;-60
2021/01/29 13:53:59;;;;;;;16.97;3.87;;;;;;;;;;6392208;22;20417;-57
2021/01/29 13:56:37;;;;;;;12.10;3.80;;;;;;;;;;6392579;22;20423;-58
2021/01/29 13:59:06;;;;;;;11.90;3.60;;;;;;;;;;6391364;22;20415;-45
2021/01/29 14:01:39;;;;;;;19.77;7.00;;;;;;;;;;6393146;22;20374;-57
2021/01/29 14:04:21;;;;;;;11.50;2.97;;;;;;;;;;6391947;22;20429;-54
2021/01/29 14:06:50;;;;;;;7.90;2.30;;;;;;;;;;6391139;22;20453;-61
2021/01/29 14:09:17;;;;;;;8.03;2.10;;;;;;;;;;6390928;22;20421;-54
2021/01/29 14:14:46;;;;;;;10.43;2.90;;;;;;;;;;6389568;22;20451;-59
2021/01/29 14:17:20;;;;;;;9.93;2.87;;;;;;;;;;6393137;22;20412;-60
2021/01/29 14:19:54;;;;;;;10.33;3.27;;;;;;;;;;6391932;22;20423;-52
2021/01/29 14:25:28;;;;;;;13.80;3.60;;;;;;;;;;6386408;22;20463;-53
2021/01/29 14:28:03;;;;;;;17.47;3.63;;;;;;;;;;6391828;22;20400;-60
2021/01/29 14:30:39;;;;;;;19.50;4.90;;;;;;;;;;6391481;22;20443;-54
2021/01/29 14:33:14;;;;;;;8.37;2.90;;;;;;;;;;6391674;22;20487;-55
2021/01/29 14:35:49;;;;;;;9.90;4.10;;;;;;;;;;6391791;22;20505;-59
2021/01/29 14:38:25;;;;;;;12.90;3.40;;;;;;;;;;6391961;22;20372;-52
2021/01/29 14:41:00;;;;;;;16.73;3.30;;;;;;;;;;6392724;22;20430;-59
2021/01/29 14:43:49;;;;;;;12.07;3.00;;;;;;;;;;6393366;22;20433;-57
2021/01/29 14:46:29;;;;;;;8.60;2.90;;;;;;;;;;6382909;22;20399;-58
2021/01/29 14:49:33;;;;;;;12.43;2.83;;;;;;;;;;6392044;22;20423;-57
2021/01/29 14:52:01;;;;;;;9.70;2.03;;;;;;;;;;6383189;22;20417;-54
2021/01/29 14:54:31;;;;;;;8.80;2.50;;;;;;;;;;6391887;22;20408;-53
2021/01/29 14:57:02;;;;;;;7.93;2.60;;;;;;;;;;6391008;22;20402;-59
2021/01/29 14:59:30;;;;;;;9.53;3.00;;;;;;;;;;6391498;22;20384;-55
2021/01/29 15:02:11;;;;;;;10.23;2.90;;;;;;;;;;6391804;22;20415;-60
2021/01/29 15:04:40;;;;;;;6.47;1.93;;;;;;;;;;6392187;22;20425;-56
2021/01/29 15:07:09;;;;;;;11.60;2.10;;;;;;;;;;6391262;22;20803;-59
2021/01/29 15:09:43;;;;;;;11.60;3.40;;;;;;;;;;6393059;22;20414;-48
2021/01/29 15:12:11;;;;;;;15.33;3.60;;;;;;;;;;6394579;22;20435;-58
2021/01/29 15:14:43;;;;;;;6.63;2.60;;;;;;;;;;6394290;22;20578;-55
2021/01/29 15:17:12;;;;;;;6.80;2.00;;;;;;;;;;6394097;22;20408;-54
2021/01/29 15:19:42;;;;;;;7.83;1.90;;;;;;;;;;6394071;22;20420;-57
2021/01/29 15:22:23;;;;;;;8.20;2.23;;;;;;;;;;6393546;22;20533;-57
2021/01/29 15:24:53;;;;;;;8.87;2.50;;;;;;;;;;6392849;22;20414;-54
2021/01/29 15:27:36;;;;;;;10.45;1.98;;;;;;;;;;6393803;22;20413;-57
2021/01/29 15:30:06;;;;;;;6.20;1.90;;;;;;;;;;6393046;22;20200;-55
2021/01/29 15:32:35;;;;;;;10.20;3.20;;;;;;;;;;6393764;22;20414;-52
2021/01/29 15:35:27;;;;;;;9.40;2.10;;;;;;;;;;6393318;22;20442;-50
2021/01/29 15:38:02;;;;;;;9.30;2.60;;;;;;;;;;6355819;22;20444;-51
2021/01/29 15:40:49;;;;;;;11.70;2.60;;;;;;;;;;6394085;22;20418;-59
2021/01/29 15:43:36;;;;;;;6.77;2.10;;;;;;;;;;6394069;22;20408;-49
2021/01/29 15:46:32;;;;;;;11.90;2.93;;;;;;;;;;6393565;22;20403;-58
2021/01/29 15:49:05;;;;;;;11.90;2.43;;;;;;;;;;6305620;22;20515;-55
2021/01/29 15:52:00;;;;;;;16.80;4.63;;;;;;;;;;6394647;22;20525;-50
2021/01/29 15:54:46;;;;;;;10.43;2.03;;;;;;;;;;6395454;22;20443;-54